Impacts TAF Board
For situational awareness. Not to be used for flight planning purposes.
IDs:

KPDX - Portland Intl Arpt, OR, US

Issued at 0548 UTC 24 Mar 2019
Updated at 0737 UTC 24 Mar 2019
Potential Impact None Slight Moderate High
Time0653Z 24/08Z 24/09Z 24/10Z 24/11Z 24/12Z 24/13Z 24/14Z 24/15Z 24/16Z 24/17Z 24/18Z 24/19Z 24/20Z>>
Type OBS PRVL PRVL PRVL PRVL PRVL PRVL PRVL PRVL PRVL PRVL PRVL PRVL PRVL
VIS 10 >6 >6 >6 >6 >6 >6 >6 >6 >6 >6 >6 >6 >6
CIG 43 250 250 250 250 250 250 22 22 22 250 250 250 250
Cover OVC BKN BKN BKN BKN BKN BKN BKN BKN BKN BKN BKN BKN BKN
FltCat VFR VFR VFR VFR VFR VFR VFR MVFR MVFR MVFR VFR VFR VFR VFR
WX -- -- -- -- -- -- -- -- -- -- -- -- -- --
WDir 230 VRB VRB VRB VRB VRB VRB VRB VRB VRB VRB VRB VRB VRB
WSpd 3 2 2 2 2 2 2 2 2 2 3 3 3 3
WGst -- -- -- -- -- -- -- -- -- -- -- -- -- --
Raw TAF
KPDX 240548Z 2406/2506 30004KT P6SM SCT090 BKN250
  FM240800 VRB02KT P6SM FEW040 BKN250
  FM241400 VRB02KT P6SM BKN022 BKN250
  FM241700 VRB03KT P6SM BKN250
  FM242200 30005KT P6SM SKC


Raw METAR
KPDX 240653Z 23003KT 10SM BKN043 OVC055 09/05 A3021 RMK AO2 SLP231 T00940050
KPDX 240553Z 26003KT 10SM SCT055 BKN090 BKN200 10/06 A3021 RMK AO2 SLP230 T01000056 10156 20094 51006
KPDX 240453Z 00000KT 10SM BKN047 BKN090 BKN200 10/05 A3021 RMK AO2 SLP229 T01000050

METAR Board
Radar Display
Forecast Discussion
For situational awareness. Not to be used for flight planning purposes.